TimeCST,TemperatureF,Dew PointF,Humidity,Sea Level PressureIn,VisibilityMPH,Wind Direction,Wind SpeedMPH,Gust SpeedMPH,PrecipitationIn,Events,Conditions,WindDirDegrees,DateUTC
12:53 AM,23.0,17.1,78,30.05,10.0,SSW,6.9,-,N/A,,Clear,200,2013-11-05 06:53:00
1:53 AM,25.0,18.0,75,30.05,10.0,SW,9.2,-,N/A,,Clear,230,2013-11-05 07:53:00
2:53 AM,19.9,16.0,85,30.08,10.0,South,8.1,-,N/A,,Clear,190,2013-11-05 08:53:00
3:53 AM,19.9,16.0,85,30.09,10.0,SW,6.9,-,N/A,,Clear,220,2013-11-05 09:53:00
4:53 AM,24.1,18.0,77,30.10,10.0,SW,6.9,-,N/A,,Partly Cloudy,230,2013-11-05 10:53:00
5:18 AM,24.8,17.6,74,30.08,10.0,SW,9.2,-,N/A,,Mostly Cloudy,220,2013-11-05 11:18:00
5:26 AM,24.8,17.6,74,30.08,10.0,SW,9.2,-,N/A,,Scattered Clouds,230,2013-11-05 11:26:00
5:53 AM,25.0,18.0,75,30.12,10.0,WSW,10.4,-,N/A,,Scattered Clouds,240,2013-11-05 11:53:00
6:53 AM,21.9,17.1,82,30.12,10.0,WSW,6.9,-,N/A,,Scattered Clouds,240,2013-11-05 12:53:00
7:53 AM,21.9,17.1,82,30.15,10.0,SW,6.9,-,N/A,,Scattered Clouds,230,2013-11-05 13:53:00
8:53 AM,26.1,18.0,71,30.16,10.0,WSW,9.2,-,N/A,,Scattered Clouds,240,2013-11-05 14:53:00
9:53 AM,28.0,19.0,69,30.18,10.0,WSW,11.5,-,N/A,,Scattered Clouds,240,2013-11-05 15:53:00
10:53 AM,28.9,19.0,67,30.19,10.0,West,12.7,-,N/A,,Mostly Cloudy,260,2013-11-05 16:53:00
11:53 AM,32.0,19.9,61,30.17,10.0,West,10.4,-,N/A,,Mostly Cloudy,260,2013-11-05 17:53:00
12:53 PM,33.1,19.9,59,30.16,10.0,West,12.7,-,N/A,,Mostly Cloudy,270,2013-11-05 18:53:00
1:53 PM,35.1,19.9,54,30.15,10.0,WSW,8.1,-,N/A,,Mostly Cloudy,250,2013-11-05 19:53:00
2:53 PM,36.0,19.9,52,30.15,10.0,WSW,10.4,-,N/A,,Mostly Cloudy,250,2013-11-05 20:53:00
3:53 PM,36.0,19.0,50,30.14,10.0,WSW,5.8,-,N/A,,Mostly Cloudy,240,2013-11-05 21:53:00
4:53 PM,32.0,19.9,61,30.13,10.0,Calm,Calm,-,N/A,,Mostly Cloudy,0,2013-11-05 22:53:00
5:53 PM,30.9,18.0,59,30.12,10.0,WNW,5.8,-,N/A,,Mostly Cloudy,300,2013-11-05 23:53:00
6:53 PM,28.9,17.1,61,30.13,10.0,WNW,5.8,-,N/A,,Mostly Cloudy,300,2013-11-06 00:53:00
7:53 PM,26.1,17.1,69,30.14,10.0,NW,4.6,-,N/A,,Mostly Cloudy,320,2013-11-06 01:53:00
8:53 PM,21.9,16.0,78,30.14,10.0,Calm,Calm,-,N/A,,Scattered Clouds,0,2013-11-06 02:53:00
9:53 PM,19.9,14.0,78,30.14,10.0,WSW,3.5,-,N/A,,Partly Cloudy,250,2013-11-06 03:53:00
10:53 PM,19.0,14.0,81,30.15,10.0,SW,3.5,-,N/A,,Clear,230,2013-11-06 04:53:00
11:53 PM,18.0,12.9,81,30.14,10.0,WNW,3.5,-,N/A,,Clear,290,2013-11-06 05:53:00